sensor_id;sensor_type;location;lat;lon;timestamp;P1;durP1;ratioP1;P2;durP2;ratioP2
8171;SDS011;4127;47.908;10.850;2022-12-29T00:02:03;1.70;;;1.60;;
8171;SDS011;4127;47.908;10.850;2022-12-29T00:04:30;2.23;;;1.60;;
8171;SDS011;4127;47.908;10.850;2022-12-29T00:06:57;1.70;;;1.60;;
8171;SDS011;4127;47.908;10.850;2022-12-29T00:09:24;2.23;;;1.50;;
8171;SDS011;4127;47.908;10.850;2022-12-29T00:11:52;2.03;;;1.83;;
8171;SDS011;4127;47.908;10.850;2022-12-29T00:14:19;2.00;;;1.80;;
8171;SDS011;4127;47.908;10.850;2022-12-29T00:17:04;2.83;;;1.97;;
8171;SDS011;4127;47.908;10.850;2022-12-29T00:19:31;1.57;;;1.47;;
8171;SDS011;4127;47.908;10.850;2022-12-29T00:22:16;2.17;;;1.70;;
8171;SDS011;4127;47.908;10.850;2022-12-29T00:25:02;1.40;;;1.30;;
8171;SDS011;4127;47.908;10.850;2022-12-29T00:27:48;1.40;;;1.30;;
8171;SDS011;4127;47.908;10.850;2022-12-29T00:30:33;2.07;;;1.40;;
8171;SDS011;4127;47.908;10.850;2022-12-29T00:33:21;1.60;;;1.50;;
8171;SDS011;4127;47.908;10.850;2022-12-29T00:38:50;1.40;;;1.30;;
8171;SDS011;4127;47.908;10.850;2022-12-29T00:41:39;2.20;;;1.70;;
8171;SDS011;4127;47.908;10.850;2022-12-29T00:44:24;1.87;;;1.50;;
8171;SDS011;4127;47.908;10.850;2022-12-29T00:46:51;1.33;;;1.23;;
8171;SDS011;4127;47.908;10.850;2022-12-29T00:49:17;1.60;;;1.50;;
8171;SDS011;4127;47.908;10.850;2022-12-29T00:51:57;1.40;;;1.30;;
8171;SDS011;4127;47.908;10.850;2022-12-29T00:54:26;1.30;;;1.20;;
8171;SDS011;4127;47.908;10.850;2022-12-29T00:56:54;1.33;;;1.23;;
8171;SDS011;4127;47.908;10.850;2022-12-29T00:59:21;3.07;;;1.40;;
8171;SDS011;4127;47.908;10.850;2022-12-29T01:01:50;1.50;;;1.40;;
8171;SDS011;4127;47.908;10.850;2022-12-29T01:04:19;1.53;;;1.33;;
8171;SDS011;4127;47.908;10.850;2022-12-29T01:06:47;1.60;;;1.50;;
8171;SDS011;4127;47.908;10.850;2022-12-29T01:09:13;1.70;;;1.60;;
8171;SDS011;4127;47.908;10.850;2022-12-29T01:11:59;1.40;;;1.30;;
8171;SDS011;4127;47.908;10.850;2022-12-29T01:14:26;1.40;;;1.30;;
8171;SDS011;4127;47.908;10.850;2022-12-29T01:16:54;1.53;;;1.43;;
8171;SDS011;4127;47.908;10.850;2022-12-29T01:19:21;1.40;;;1.30;;
8171;SDS011;4127;47.908;10.850;2022-12-29T01:21:49;1.40;;;1.33;;
8171;SDS011;4127;47.908;10.850;2022-12-29T01:24:16;1.50;;;1.40;;
8171;SDS011;4127;47.908;10.850;2022-12-29T01:26:45;1.47;;;1.37;;
8171;SDS011;4127;47.908;10.850;2022-12-29T01:29:12;1.47;;;1.37;;
8171;SDS011;4127;47.908;10.850;2022-12-29T01:31:39;1.60;;;1.50;;
8171;SDS011;4127;47.908;10.850;2022-12-29T01:34:07;1.60;;;1.50;;
8171;SDS011;4127;47.908;10.850;2022-12-29T01:36:34;1.50;;;1.10;;
8171;SDS011;4127;47.908;10.850;2022-12-29T01:39:00;1.83;;;1.50;;
8171;SDS011;4127;47.908;10.850;2022-12-29T01:41:28;2.03;;;1.70;;
8171;SDS011;4127;47.908;10.850;2022-12-29T01:43:58;1.80;;;1.60;;
8171;SDS011;4127;47.908;10.850;2022-12-29T01:46:28;1.17;;;1.17;;
8171;SDS011;4127;47.908;10.850;2022-12-29T01:51:44;3.10;;;1.83;;
8171;SDS011;4127;47.908;10.850;2022-12-29T01:54:16;1.17;;;1.10;;
8171;SDS011;4127;47.908;10.850;2022-12-29T01:56:48;1.23;;;1.17;;
8171;SDS011;4127;47.908;10.850;2022-12-29T01:59:17;2.03;;;1.20;;
8171;SDS011;4127;47.908;10.850;2022-12-29T02:01:48;1.50;;;1.40;;
8171;SDS011;4127;47.908;10.850;2022-12-29T02:04:16;1.77;;;1.43;;
8171;SDS011;4127;47.908;10.850;2022-12-29T02:06:48;1.43;;;1.33;;
8171;SDS011;4127;47.908;10.850;2022-12-29T02:09:25;1.57;;;1.47;;
8171;SDS011;4127;47.908;10.850;2022-12-29T02:11:52;1.47;;;1.37;;
8171;SDS011;4127;47.908;10.850;2022-12-29T02:14:19;1.40;;;1.30;;
8171;SDS011;4127;47.908;10.850;2022-12-29T02:34:00;1.50;;;1.40;;
8171;SDS011;4127;47.908;10.850;2022-12-29T02:36:49;1.40;;;1.30;;
8171;SDS011;4127;47.908;10.850;2022-12-29T02:42:36;1.40;;;1.30;;
8171;SDS011;4127;47.908;10.850;2022-12-29T02:45:05;2.43;;;1.30;;
8171;SDS011;4127;47.908;10.850;2022-12-29T02:47:51;1.87;;;1.30;;
8171;SDS011;4127;47.908;10.850;2022-12-29T02:50:33;1.10;;;1.10;;
8171;SDS011;4127;47.908;10.850;2022-12-29T02:53:02;1.77;;;1.40;;
8171;SDS011;4127;47.908;10.850;2022-12-29T02:55:33;1.23;;;1.20;;
8171;SDS011;4127;47.908;10.850;2022-12-29T02:58:13;1.30;;;1.20;;
8171;SDS011;4127;47.908;10.850;2022-12-29T03:00:59;1.40;;;1.30;;
8171;SDS011;4127;47.908;10.850;2022-12-29T03:09:18;1.13;;;1.03;;
8171;SDS011;4127;47.908;10.850;2022-12-29T03:11:58;1.30;;;1.20;;
8171;SDS011;4127;47.908;10.850;2022-12-29T03:17:53;1.30;;;1.20;;
8171;SDS011;4127;47.908;10.850;2022-12-29T03:20:31;1.30;;;1.20;;
8171;SDS011;4127;47.908;10.850;2022-12-29T03:23:08;1.30;;;1.20;;
8171;SDS011;4127;47.908;10.850;2022-12-29T03:25:38;1.10;;;1.10;;
8171;SDS011;4127;47.908;10.850;2022-12-29T03:28:11;1.10;;;1.10;;
8171;SDS011;4127;47.908;10.850;2022-12-29T03:30:43;1.30;;;1.20;;
8171;SDS011;4127;47.908;10.850;2022-12-29T03:33:12;1.30;;;1.20;;
8171;SDS011;4127;47.908;10.850;2022-12-29T03:35:44;0.90;;;0.90;;
8171;SDS011;4127;47.908;10.850;2022-12-29T03:40:44;1.10;;;1.10;;
8171;SDS011;4127;47.908;10.850;2022-12-29T03:43:14;1.30;;;1.20;;
8171;SDS011;4127;47.908;10.850;2022-12-29T03:45:43;1.30;;;1.20;;
8171;SDS011;4127;47.908;10.850;2022-12-29T03:48:10;1.03;;;1.03;;
8171;SDS011;4127;47.908;10.850;2022-12-29T03:50:36;1.10;;;1.00;;
8171;SDS011;4127;47.908;10.850;2022-12-29T03:53:03;1.30;;;1.20;;
8171;SDS011;4127;47.908;10.850;2022-12-29T03:55:30;1.30;;;1.20;;
8171;SDS011;4127;47.908;10.850;2022-12-29T03:57:57;1.30;;;1.20;;
8171;SDS011;4127;47.908;10.850;2022-12-29T04:00:24;1.20;;;1.10;;
8171;SDS011;4127;47.908;10.850;2022-12-29T04:02:50;1.20;;;1.10;;
8171;SDS011;4127;47.908;10.850;2022-12-29T04:05:18;1.00;;;0.90;;
8171;SDS011;4127;47.908;10.850;2022-12-29T04:07:44;1.23;;;1.20;;
8171;SDS011;4127;47.908;10.850;2022-12-29T04:10:11;1.40;;;1.30;;
8171;SDS011;4127;47.908;10.850;2022-12-29T04:12:38;1.60;;;1.30;;
8171;SDS011;4127;47.908;10.850;2022-12-29T04:15:08;1.40;;;1.30;;
8171;SDS011;4127;47.908;10.850;2022-12-29T04:17:35;1.20;;;1.10;;
8171;SDS011;4127;47.908;10.850;2022-12-29T04:20:02;1.17;;;1.17;;
8171;SDS011;4127;47.908;10.850;2022-12-29T04:22:48;1.20;;;1.20;;
8171;SDS011;4127;47.908;10.850;2022-12-29T04:25:16;1.40;;;1.30;;
8171;SDS011;4127;47.908;10.850;2022-12-29T04:27:43;1.30;;;1.20;;
8171;SDS011;4127;47.908;10.850;2022-12-29T04:30:10;1.27;;;1.17;;
8171;SDS011;4127;47.908;10.850;2022-12-29T04:32:37;1.40;;;1.30;;
8171;SDS011;4127;47.908;10.850;2022-12-29T04:35:04;1.00;;;1.00;;
8171;SDS011;4127;47.908;10.850;2022-12-29T04:37:31;1.27;;;1.17;;
8171;SDS011;4127;47.908;10.850;2022-12-29T04:39:59;1.10;;;1.10;;
8171;SDS011;4127;47.908;10.850;2022-12-29T04:42:25;1.20;;;1.20;;
8171;SDS011;4127;47.908;10.850;2022-12-29T04:44:52;2.30;;;1.30;;
8171;SDS011;4127;47.908;10.850;2022-12-29T04:47:19;1.40;;;1.30;;
8171;SDS011;4127;47.908;10.850;2022-12-29T04:49:46;1.30;;;1.20;;
8171;SDS011;4127;47.908;10.850;2022-12-29T04:52:12;1.17;;;1.17;;
8171;SDS011;4127;47.908;10.850;2022-12-29T04:54:39;1.20;;;1.10;;
8171;SDS011;4127;47.908;10.850;2022-12-29T04:57:06;1.10;;;1.10;;
8171;SDS011;4127;47.908;10.850;2022-12-29T04:59:33;1.10;;;1.00;;
8171;SDS011;4127;47.908;10.850;2022-12-29T05:01:59;1.47;;;1.33;;
8171;SDS011;4127;47.908;10.850;2022-12-29T05:04:26;1.60;;;1.50;;
8171;SDS011;4127;47.908;10.850;2022-12-29T05:06:53;1.70;;;1.60;;
8171;SDS011;4127;47.908;10.850;2022-12-29T05:09:20;1.60;;;1.50;;
8171;SDS011;4127;47.908;10.850;2022-12-29T05:11:46;1.33;;;1.20;;
8171;SDS011;4127;47.908;10.850;2022-12-29T05:14:13;3.23;;;2.60;;
8171;SDS011;4127;47.908;10.850;2022-12-29T05:16:40;2.60;;;2.40;;
8171;SDS011;4127;47.908;10.850;2022-12-29T05:19:07;1.93;;;1.83;;
8171;SDS011;4127;47.908;10.850;2022-12-29T05:21:33;1.60;;;1.50;;
8171;SDS011;4127;47.908;10.850;2022-12-29T05:24:00;1.50;;;1.40;;
8171;SDS011;4127;47.908;10.850;2022-12-29T05:26:27;1.63;;;1.53;;
8171;SDS011;4127;47.908;10.850;2022-12-29T05:28:54;1.50;;;1.40;;
8171;SDS011;4127;47.908;10.850;2022-12-29T05:31:20;1.60;;;1.50;;
8171;SDS011;4127;47.908;10.850;2022-12-29T05:33:47;1.50;;;1.40;;
8171;SDS011;4127;47.908;10.850;2022-12-29T05:36:14;1.60;;;1.50;;
8171;SDS011;4127;47.908;10.850;2022-12-29T05:38:41;1.90;;;1.80;;
8171;SDS011;4127;47.908;10.850;2022-12-29T05:41:07;1.83;;;1.70;;
8171;SDS011;4127;47.908;10.850;2022-12-29T05:43:34;1.97;;;1.70;;
8171;SDS011;4127;47.908;10.850;2022-12-29T05:46:01;1.50;;;1.40;;
8171;SDS011;4127;47.908;10.850;2022-12-29T05:48:28;2.20;;;1.50;;
8171;SDS011;4127;47.908;10.850;2022-12-29T05:51:02;3.27;;;1.50;;
8171;SDS011;4127;47.908;10.850;2022-12-29T05:53:29;2.73;;;2.43;;
8171;SDS011;4127;47.908;10.850;2022-12-29T05:55:56;2.20;;;1.90;;
8171;SDS011;4127;47.908;10.850;2022-12-29T05:58:23;1.70;;;1.60;;
8171;SDS011;4127;47.908;10.850;2022-12-29T06:00:50;1.93;;;1.70;;
8171;SDS011;4127;47.908;10.850;2022-12-29T06:03:17;1.93;;;1.73;;
8171;SDS011;4127;47.908;10.850;2022-12-29T06:05:45;1.50;;;1.40;;
8171;SDS011;4127;47.908;10.850;2022-12-29T06:08:12;1.53;;;1.30;;
8171;SDS011;4127;47.908;10.850;2022-12-29T06:10:39;3.03;;;2.10;;
8171;SDS011;4127;47.908;10.850;2022-12-29T06:13:06;9.37;;;6.83;;
8171;SDS011;4127;47.908;10.850;2022-12-29T06:15:33;12.83;;;9.37;;
8171;SDS011;4127;47.908;10.850;2022-12-29T06:18:00;2.50;;;2.30;;
8171;SDS011;4127;47.908;10.850;2022-12-29T06:20:27;2.27;;;2.00;;
8171;SDS011;4127;47.908;10.850;2022-12-29T06:22:54;1.73;;;1.63;;
8171;SDS011;4127;47.908;10.850;2022-12-29T06:25:20;1.93;;;1.60;;
8171;SDS011;4127;47.908;10.850;2022-12-29T06:27:47;1.60;;;1.50;;
8171;SDS011;4127;47.908;10.850;2022-12-29T06:30:14;1.70;;;1.27;;
8171;SDS011;4127;47.908;10.850;2022-12-29T06:32:42;1.67;;;1.20;;
8171;SDS011;4127;47.908;10.850;2022-12-29T06:35:09;1.47;;;1.37;;
8171;SDS011;4127;47.908;10.850;2022-12-29T06:37:36;1.30;;;1.20;;
8171;SDS011;4127;47.908;10.850;2022-12-29T06:40:03;1.73;;;1.30;;
8171;SDS011;4127;47.908;10.850;2022-12-29T06:42:30;1.50;;;1.40;;
8171;SDS011;4127;47.908;10.850;2022-12-29T06:44:57;1.40;;;1.30;;
8171;SDS011;4127;47.908;10.850;2022-12-29T06:47:25;1.60;;;1.50;;
8171;SDS011;4127;47.908;10.850;2022-12-29T06:49:51;1.50;;;1.40;;
8171;SDS011;4127;47.908;10.850;2022-12-29T06:52:18;2.30;;;2.10;;
8171;SDS011;4127;47.908;10.850;2022-12-29T06:54:45;2.50;;;2.30;;
8171;SDS011;4127;47.908;10.850;2022-12-29T06:57:11;2.67;;;1.40;;
8171;SDS011;4127;47.908;10.850;2022-12-29T06:59:39;1.57;;;1.47;;
8171;SDS011;4127;47.908;10.850;2022-12-29T07:02:06;2.53;;;1.90;;
8171;SDS011;4127;47.908;10.850;2022-12-29T07:04:33;3.27;;;2.97;;
8171;SDS011;4127;47.908;10.850;2022-12-29T07:06:59;4.23;;;3.83;;
8171;SDS011;4127;47.908;10.850;2022-12-29T07:09:26;5.07;;;4.30;;
8171;SDS011;4127;47.908;10.850;2022-12-29T07:11:53;4.90;;;4.40;;
8171;SDS011;4127;47.908;10.850;2022-12-29T07:14:20;3.13;;;2.50;;
8171;SDS011;4127;47.908;10.850;2022-12-29T07:16:46;3.10;;;1.87;;
8171;SDS011;4127;47.908;10.850;2022-12-29T07:19:13;2.17;;;1.70;;
8171;SDS011;4127;47.908;10.850;2022-12-29T07:21:40;2.87;;;2.10;;
8171;SDS011;4127;47.908;10.850;2022-12-29T07:24:12;2.83;;;2.27;;
8171;SDS011;4127;47.908;10.850;2022-12-29T07:26:39;2.40;;;2.13;;
8171;SDS011;4127;47.908;10.850;2022-12-29T07:29:06;2.53;;;2.33;;
8171;SDS011;4127;47.908;10.850;2022-12-29T07:31:32;4.33;;;2.80;;
8171;SDS011;4127;47.908;10.850;2022-12-29T07:33:59;2.77;;;2.33;;
8171;SDS011;4127;47.908;10.850;2022-12-29T07:36:26;2.60;;;2.40;;
8171;SDS011;4127;47.908;10.850;2022-12-29T07:38:59;3.20;;;2.90;;
8171;SDS011;4127;47.908;10.850;2022-12-29T07:41:26;2.87;;;2.30;;
8171;SDS011;4127;47.908;10.850;2022-12-29T07:49:29;2.17;;;1.97;;
8171;SDS011;4127;47.908;10.850;2022-12-29T07:51:56;2.20;;;2.00;;
8171;SDS011;4127;47.908;10.850;2022-12-29T07:54:22;2.80;;;2.03;;
8171;SDS011;4127;47.908;10.850;2022-12-29T07:56:50;2.53;;;2.33;;
8171;SDS011;4127;47.908;10.850;2022-12-29T07:59:17;3.07;;;2.20;;
8171;SDS011;4127;47.908;10.850;2022-12-29T08:01:44;2.60;;;2.40;;
8171;SDS011;4127;47.908;10.850;2022-12-29T08:04:10;2.30;;;2.10;;
8171;SDS011;4127;47.908;10.850;2022-12-29T08:06:37;2.47;;;2.27;;
8171;SDS011;4127;47.908;10.850;2022-12-29T08:09:04;1.67;;;1.57;;
8171;SDS011;4127;47.908;10.850;2022-12-29T08:11:41;2.47;;;1.90;;
8171;SDS011;4127;47.908;10.850;2022-12-29T08:14:09;2.77;;;1.70;;
8171;SDS011;4127;47.908;10.850;2022-12-29T08:16:36;1.63;;;1.53;;
8171;SDS011;4127;47.908;10.850;2022-12-29T08:19:03;1.40;;;1.30;;
8171;SDS011;4127;47.908;10.850;2022-12-29T08:21:31;1.57;;;1.40;;
8171;SDS011;4127;47.908;10.850;2022-12-29T08:23:58;2.17;;;1.90;;
8171;SDS011;4127;47.908;10.850;2022-12-29T08:26:25;2.90;;;1.70;;
8171;SDS011;4127;47.908;10.850;2022-12-29T08:28:52;2.53;;;2.00;;
8171;SDS011;4127;47.908;10.850;2022-12-29T08:31:19;3.00;;;2.40;;
8171;SDS011;4127;47.908;10.850;2022-12-29T08:33:46;2.57;;;2.30;;
8171;SDS011;4127;47.908;10.850;2022-12-29T08:36:13;1.80;;;1.63;;
8171;SDS011;4127;47.908;10.850;2022-12-29T08:38:40;2.53;;;2.03;;
8171;SDS011;4127;47.908;10.850;2022-12-29T08:41:07;2.37;;;1.80;;
8171;SDS011;4127;47.908;10.850;2022-12-29T08:43:34;2.20;;;1.80;;
8171;SDS011;4127;47.908;10.850;2022-12-29T08:46:00;2.03;;;1.33;;
8171;SDS011;4127;47.908;10.850;2022-12-29T08:48:28;1.80;;;1.60;;
8171;SDS011;4127;47.908;10.850;2022-12-29T08:50:54;2.63;;;1.77;;
8171;SDS011;4127;47.908;10.850;2022-12-29T08:53:21;1.50;;;1.40;;
8171;SDS011;4127;47.908;10.850;2022-12-29T08:55:55;1.40;;;1.20;;
8171;SDS011;4127;47.908;10.850;2022-12-29T08:58:30;1.70;;;1.60;;
8171;SDS011;4127;47.908;10.850;2022-12-29T09:00:58;1.83;;;1.60;;
8171;SDS011;4127;47.908;10.850;2022-12-29T09:03:25;1.60;;;1.50;;
8171;SDS011;4127;47.908;10.850;2022-12-29T09:06:13;1.60;;;1.40;;
8171;SDS011;4127;47.908;10.850;2022-12-29T09:08:40;1.70;;;1.60;;
8171;SDS011;4127;47.908;10.850;2022-12-29T09:11:09;4.70;;;4.30;;
8171;SDS011;4127;47.908;10.850;2022-12-29T09:13:39;4.17;;;3.00;;
8171;SDS011;4127;47.908;10.850;2022-12-29T09:16:06;10.30;;;6.70;;
8171;SDS011;4127;47.908;10.850;2022-12-29T09:18:33;3.87;;;3.20;;
8171;SDS011;4127;47.908;10.850;2022-12-29T09:21:01;3.10;;;2.80;;
8171;SDS011;4127;47.908;10.850;2022-12-29T09:23:31;2.90;;;2.60;;
8171;SDS011;4127;47.908;10.850;2022-12-29T09:25:58;2.80;;;2.43;;
8171;SDS011;4127;47.908;10.850;2022-12-29T09:28:25;2.80;;;2.60;;
8171;SDS011;4127;47.908;10.850;2022-12-29T09:30:52;2.27;;;1.97;;
8171;SDS011;4127;47.908;10.850;2022-12-29T09:33:19;2.00;;;1.83;;
8171;SDS011;4127;47.908;10.850;2022-12-29T09:35:50;2.13;;;2.03;;
8171;SDS011;4127;47.908;10.850;2022-12-29T09:38:22;1.90;;;1.80;;
8171;SDS011;4127;47.908;10.850;2022-12-29T09:40:55;2.07;;;1.73;;
8171;SDS011;4127;47.908;10.850;2022-12-29T09:43:38;3.30;;;2.20;;
8171;SDS011;4127;47.908;10.850;2022-12-29T09:46:24;2.77;;;1.90;;
8171;SDS011;4127;47.908;10.850;2022-12-29T09:49:05;2.27;;;1.80;;
8171;SDS011;4127;47.908;10.850;2022-12-29T09:51:43;1.80;;;1.70;;
8171;SDS011;4127;47.908;10.850;2022-12-29T09:56:50;1.80;;;1.60;;
8171;SDS011;4127;47.908;10.850;2022-12-29T09:59:20;2.23;;;2.03;;
8171;SDS011;4127;47.908;10.850;2022-12-29T10:01:58;2.73;;;2.10;;
8171;SDS011;4127;47.908;10.850;2022-12-29T10:04:46;1.77;;;1.67;;
8171;SDS011;4127;47.908;10.850;2022-12-29T10:13:01;2.93;;;2.30;;
8171;SDS011;4127;47.908;10.850;2022-12-29T10:24:14;1.77;;;1.67;;
8171;SDS011;4127;47.908;10.850;2022-12-29T10:26:43;1.90;;;1.67;;
8171;SDS011;4127;47.908;10.850;2022-12-29T10:31:56;1.47;;;1.37;;
8171;SDS011;4127;47.908;10.850;2022-12-29T10:34:27;1.80;;;1.70;;
8171;SDS011;4127;47.908;10.850;2022-12-29T10:37:03;2.17;;;1.90;;
8171;SDS011;4127;47.908;10.850;2022-12-29T10:39:42;1.70;;;1.60;;
8171;SDS011;4127;47.908;10.850;2022-12-29T10:42:28;2.23;;;2.07;;
8171;SDS011;4127;47.908;10.850;2022-12-29T10:45:03;2.43;;;2.23;;
8171;SDS011;4127;47.908;10.850;2022-12-29T10:47:33;2.40;;;2.20;;
8171;SDS011;4127;47.908;10.850;2022-12-29T10:50:04;2.33;;;2.00;;
8171;SDS011;4127;47.908;10.850;2022-12-29T10:52:31;3.60;;;3.30;;
8171;SDS011;4127;47.908;10.850;2022-12-29T10:55:08;2.00;;;1.90;;
8171;SDS011;4127;47.908;10.850;2022-12-29T10:57:43;2.70;;;2.50;;
8171;SDS011;4127;47.908;10.850;2022-12-29T11:00:11;3.10;;;2.80;;
8171;SDS011;4127;47.908;10.850;2022-12-29T11:05:44;1.40;;;1.30;;
8171;SDS011;4127;47.908;10.850;2022-12-29T11:08:17;1.33;;;1.13;;
8171;SDS011;4127;47.908;10.850;2022-12-29T11:10:56;1.47;;;1.37;;
8171;SDS011;4127;47.908;10.850;2022-12-29T11:13:28;1.60;;;1.50;;
8171;SDS011;4127;47.908;10.850;2022-12-29T11:16:04;1.23;;;1.20;;
8171;SDS011;4127;47.908;10.850;2022-12-29T11:18:36;1.50;;;1.40;;
8171;SDS011;4127;47.908;10.850;2022-12-29T11:21:05;1.60;;;1.40;;
8171;SDS011;4127;47.908;10.850;2022-12-29T11:26:44;1.50;;;1.40;;
8171;SDS011;4127;47.908;10.850;2022-12-29T11:29:16;1.50;;;1.40;;
8171;SDS011;4127;47.908;10.850;2022-12-29T11:31:51;1.57;;;1.47;;
8171;SDS011;4127;47.908;10.850;2022-12-29T11:34:31;1.50;;;1.40;;
8171;SDS011;4127;47.908;10.850;2022-12-29T11:37:00;2.67;;;1.43;;
8171;SDS011;4127;47.908;10.850;2022-12-29T11:39:29;1.50;;;1.40;;
8171;SDS011;4127;47.908;10.850;2022-12-29T11:42:00;2.67;;;1.37;;
8171;SDS011;4127;47.908;10.850;2022-12-29T11:44:30;1.60;;;1.50;;
8171;SDS011;4127;47.908;10.850;2022-12-29T11:47:02;1.40;;;1.30;;
8171;SDS011;4127;47.908;10.850;2022-12-29T11:49:30;2.10;;;1.90;;
8171;SDS011;4127;47.908;10.850;2022-12-29T11:51:57;1.83;;;1.53;;
8171;SDS011;4127;47.908;10.850;2022-12-29T11:54:31;2.10;;;1.67;;
8171;SDS011;4127;47.908;10.850;2022-12-29T11:57:11;2.20;;;2.10;;
8171;SDS011;4127;47.908;10.850;2022-12-29T11:59:41;1.50;;;1.40;;
8171;SDS011;4127;47.908;10.850;2022-12-29T12:04:55;2.67;;;2.23;;
8171;SDS011;4127;47.908;10.850;2022-12-29T12:07:38;2.43;;;1.90;;
8171;SDS011;4127;47.908;10.850;2022-12-29T12:10:10;2.23;;;2.03;;
8171;SDS011;4127;47.908;10.850;2022-12-29T12:12:48;1.70;;;1.60;;
8171;SDS011;4127;47.908;10.850;2022-12-29T12:15:27;4.53;;;2.50;;
8171;SDS011;4127;47.908;10.850;2022-12-29T12:21:04;3.27;;;1.93;;
8171;SDS011;4127;47.908;10.850;2022-12-29T12:23:41;1.60;;;1.50;;
8171;SDS011;4127;47.908;10.850;2022-12-29T12:26:21;2.97;;;2.03;;
8171;SDS011;4127;47.908;10.850;2022-12-29T12:29:15;2.93;;;2.40;;
8171;SDS011;4127;47.908;10.850;2022-12-29T12:31:48;2.40;;;2.20;;
8171;SDS011;4127;47.908;10.850;2022-12-29T12:34:21;2.07;;;1.97;;
8171;SDS011;4127;47.908;10.850;2022-12-29T12:37:01;2.53;;;1.97;;
8171;SDS011;4127;47.908;10.850;2022-12-29T12:40:12;1.77;;;1.63;;
8171;SDS011;4127;47.908;10.850;2022-12-29T12:51:10;1.50;;;1.40;;
8171;SDS011;4127;47.908;10.850;2022-12-29T12:59:56;2.17;;;1.73;;
8171;SDS011;4127;47.908;10.850;2022-12-29T13:11:13;2.87;;;2.67;;
8171;SDS011;4127;47.908;10.850;2022-12-29T13:22:35;2.43;;;2.23;;
8171;SDS011;4127;47.908;10.850;2022-12-29T13:36:03;4.27;;;2.47;;
8171;SDS011;4127;47.908;10.850;2022-12-29T13:38:58;1.97;;;1.80;;
8171;SDS011;4127;47.908;10.850;2022-12-29T13:41:33;1.57;;;1.30;;
8171;SDS011;4127;47.908;10.850;2022-12-29T13:46:39;1.70;;;1.60;;
8171;SDS011;4127;47.908;10.850;2022-12-29T13:49:12;2.37;;;1.73;;
8171;SDS011;4127;47.908;10.850;2022-12-29T13:59:49;1.80;;;1.67;;
8171;SDS011;4127;47.908;10.850;2022-12-29T14:02:37;2.93;;;2.30;;
8171;SDS011;4127;47.908;10.850;2022-12-29T14:08:11;1.60;;;1.50;;
8171;SDS011;4127;47.908;10.850;2022-12-29T14:13:20;2.20;;;2.00;;
8171;SDS011;4127;47.908;10.850;2022-12-29T14:15:55;2.43;;;1.93;;
8171;SDS011;4127;47.908;10.850;2022-12-29T14:18:25;2.50;;;2.30;;
8171;SDS011;4127;47.908;10.850;2022-12-29T14:20:57;3.70;;;3.30;;
8171;SDS011;4127;47.908;10.850;2022-12-29T14:23:29;2.20;;;2.07;;
8171;SDS011;4127;47.908;10.850;2022-12-29T14:28:33;3.20;;;2.90;;
8171;SDS011;4127;47.908;10.850;2022-12-29T14:31:02;3.30;;;3.00;;
8171;SDS011;4127;47.908;10.850;2022-12-29T14:34:14;3.13;;;2.70;;
8171;SDS011;4127;47.908;10.850;2022-12-29T14:36:37;2.30;;;2.10;;
8171;SDS011;4127;47.908;10.850;2022-12-29T14:44:50;1.70;;;1.60;;
8171;SDS011;4127;47.908;10.850;2022-12-29T14:47:39;2.40;;;2.20;;
8171;SDS011;4127;47.908;10.850;2022-12-29T14:58:00;2.30;;;1.80;;
8171;SDS011;4127;47.908;10.850;2022-12-29T15:00:32;2.10;;;1.90;;
8171;SDS011;4127;47.908;10.850;2022-12-29T15:03:05;2.83;;;2.30;;
8171;SDS011;4127;47.908;10.850;2022-12-29T15:05:43;4.77;;;2.50;;
8171;SDS011;4127;47.908;10.850;2022-12-29T15:08:28;3.30;;;2.63;;
8171;SDS011;4127;47.908;10.850;2022-12-29T15:10:59;2.27;;;1.97;;
8171;SDS011;4127;47.908;10.850;2022-12-29T15:13:42;2.03;;;1.83;;
8171;SDS011;4127;47.908;10.850;2022-12-29T15:18:54;2.00;;;1.90;;
8171;SDS011;4127;47.908;10.850;2022-12-29T15:21:25;2.23;;;2.10;;
8171;SDS011;4127;47.908;10.850;2022-12-29T15:23:56;2.43;;;2.23;;
8171;SDS011;4127;47.908;10.850;2022-12-29T15:26:23;3.80;;;3.50;;
8171;SDS011;4127;47.908;10.850;2022-12-29T15:29:03;3.23;;;2.97;;
8171;SDS011;4127;47.908;10.850;2022-12-29T15:31:30;3.87;;;2.93;;
8171;SDS011;4127;47.908;10.850;2022-12-29T15:34:09;2.03;;;1.90;;
8171;SDS011;4127;47.908;10.850;2022-12-29T15:36:39;3.10;;;2.77;;
8171;SDS011;4127;47.908;10.850;2022-12-29T15:39:20;2.90;;;2.60;;
8171;SDS011;4127;47.908;10.850;2022-12-29T15:41:55;3.80;;;3.33;;
8171;SDS011;4127;47.908;10.850;2022-12-29T15:44:37;2.97;;;2.50;;
8171;SDS011;4127;47.908;10.850;2022-12-29T15:47:14;3.20;;;2.90;;
8171;SDS011;4127;47.908;10.850;2022-12-29T15:49:44;2.93;;;2.50;;
8171;SDS011;4127;47.908;10.850;2022-12-29T15:52:19;3.17;;;2.87;;
8171;SDS011;4127;47.908;10.850;2022-12-29T15:54:51;4.37;;;3.53;;
8171;SDS011;4127;47.908;10.850;2022-12-29T15:57:23;3.58;;;3.00;;
8171;SDS011;4127;47.908;10.850;2022-12-29T15:59:52;3.13;;;2.80;;
8171;SDS011;4127;47.908;10.850;2022-12-29T16:02:21;2.50;;;2.30;;
8171;SDS011;4127;47.908;10.850;2022-12-29T16:04:49;2.83;;;2.60;;
8171;SDS011;4127;47.908;10.850;2022-12-29T16:07:37;3.87;;;3.47;;
8171;SDS011;4127;47.908;10.850;2022-12-29T16:12:53;4.70;;;3.80;;
8171;SDS011;4127;47.908;10.850;2022-12-29T16:15:20;4.07;;;3.67;;
8171;SDS011;4127;47.908;10.850;2022-12-29T16:17:48;4.07;;;3.00;;
8171;SDS011;4127;47.908;10.850;2022-12-29T16:20:21;3.37;;;3.07;;
8171;SDS011;4127;47.908;10.850;2022-12-29T16:22:54;2.07;;;1.87;;
8171;SDS011;4127;47.908;10.850;2022-12-29T16:25:29;7.17;;;5.33;;
8171;SDS011;4127;47.908;10.850;2022-12-29T16:28:01;4.70;;;3.43;;
8171;SDS011;4127;47.908;10.850;2022-12-29T16:30:40;4.27;;;3.27;;
8171;SDS011;4127;47.908;10.850;2022-12-29T16:33:28;5.13;;;3.63;;
8171;SDS011;4127;47.908;10.850;2022-12-29T16:35:57;9.37;;;6.67;;
8171;SDS011;4127;47.908;10.850;2022-12-29T16:38:30;4.30;;;3.20;;
8171;SDS011;4127;47.908;10.850;2022-12-29T16:40:59;2.80;;;2.57;;
8171;SDS011;4127;47.908;10.850;2022-12-29T16:43:32;2.50;;;2.30;;
8171;SDS011;4127;47.908;10.850;2022-12-29T16:48:45;3.10;;;2.47;;
8171;SDS011;4127;47.908;10.850;2022-12-29T16:51:16;2.47;;;2.10;;
8171;SDS011;4127;47.908;10.850;2022-12-29T16:53:48;2.57;;;2.37;;
8171;SDS011;4127;47.908;10.850;2022-12-29T16:56:22;1.70;;;1.60;;
8171;SDS011;4127;47.908;10.850;2022-12-29T16:58:52;1.90;;;1.60;;
8171;SDS011;4127;47.908;10.850;2022-12-29T17:01:40;3.13;;;2.83;;
8171;SDS011;4127;47.908;10.850;2022-12-29T17:04:11;15.63;;;12.60;;
8171;SDS011;4127;47.908;10.850;2022-12-29T17:06:39;16.53;;;13.07;;
8171;SDS011;4127;47.908;10.850;2022-12-29T17:09:20;12.13;;;9.47;;
8171;SDS011;4127;47.908;10.850;2022-12-29T17:11:52;8.20;;;6.73;;
8171;SDS011;4127;47.908;10.850;2022-12-29T17:14:36;4.37;;;3.97;;
8171;SDS011;4127;47.908;10.850;2022-12-29T17:17:18;2.20;;;2.00;;
8171;SDS011;4127;47.908;10.850;2022-12-29T17:19:53;2.30;;;2.00;;
8171;SDS011;4127;47.908;10.850;2022-12-29T17:22:22;2.17;;;1.97;;
8171;SDS011;4127;47.908;10.850;2022-12-29T17:24:51;2.30;;;1.90;;
8171;SDS011;4127;47.908;10.850;2022-12-29T17:27:21;2.83;;;2.60;;
8171;SDS011;4127;47.908;10.850;2022-12-29T17:29:59;4.00;;;3.57;;
8171;SDS011;4127;47.908;10.850;2022-12-29T17:32:29;2.73;;;2.53;;
8171;SDS011;4127;47.908;10.850;2022-12-29T17:34:56;6.80;;;4.07;;
8171;SDS011;4127;47.908;10.850;2022-12-29T17:39:50;6.07;;;5.10;;
8171;SDS011;4127;47.908;10.850;2022-12-29T17:42:17;7.33;;;6.40;;
8171;SDS011;4127;47.908;10.850;2022-12-29T17:44:45;7.10;;;6.10;;
8171;SDS011;4127;47.908;10.850;2022-12-29T17:47:12;6.77;;;6.10;;
8171;SDS011;4127;47.908;10.850;2022-12-29T17:49:41;6.93;;;6.13;;
8171;SDS011;4127;47.908;10.850;2022-12-29T17:52:12;12.43;;;9.40;;
8171;SDS011;4127;47.908;10.850;2022-12-29T17:54:50;10.50;;;8.03;;
8171;SDS011;4127;47.908;10.850;2022-12-29T17:57:18;10.23;;;8.50;;
8171;SDS011;4127;47.908;10.850;2022-12-29T17:59:46;13.50;;;11.10;;
8171;SDS011;4127;47.908;10.850;2022-12-29T18:04:51;8.50;;;6.97;;
8171;SDS011;4127;47.908;10.850;2022-12-29T18:07:18;5.97;;;5.03;;
8171;SDS011;4127;47.908;10.850;2022-12-29T18:09:45;8.60;;;6.60;;